SUR4155 MUCU-MDSD
Flight info
| Callsign | SUR4155 |
|---|---|
| Flight time | N/A |
| Altitude | 37000 |
| Route | KAVON4D/28 DEPSI A890 PAP L577 ETBOD/N0461F350 UM596 POBIN UL212 KODIX |
| Aircraft | B738/M-SDE2E3FGHIRWXY/LB1 |
Departure
| Time | N/A |
|---|---|
| Airport | Antonio Maceo International Airport (MUCU) |
Arrival
| Time | 2026-05-03 20:46 |
|---|---|
| Airport | Las Américas International Airport (MDSD) |
| Time | Latitude | Longitude | Altitude | Speed | Heading |
|---|---|---|---|---|---|
| 2026-05-03 20:15 | 18.55610 | -72.15844 | 36977 ft | 499 kts | 98° |
| 2026-05-03 20:15 | 18.54607 | -72.08586 | 36981 ft | 502 kts | 98° |
| 2026-05-03 20:16 | 18.53564 | -72.01300 | 36986 ft | 503 kts | 98° |
| 2026-05-03 20:16 | 18.52556 | -71.94008 | 36993 ft | 502 kts | 93° |
| 2026-05-03 20:16 | 18.52794 | -71.90360 | 37019 ft | 498 kts | 75° |
| 2026-05-03 20:17 | 18.53909 | -71.86934 | 37015 ft | 494 kts | 61° |
| 2026-05-03 20:17 | 18.55742 | -71.83902 | 37006 ft | 487 kts | 46° |
| 2026-05-03 20:17 | 18.58079 | -71.81331 | 37025 ft | 484 kts | 41° |
| 2026-05-03 20:18 | 18.62897 | -71.76425 | 37008 ft | 484 kts | 41° |
| 2026-05-03 20:18 | 18.67728 | -71.71485 | 37013 ft | 483 kts | 41° |
| 2026-05-03 20:19 | 18.72513 | -71.66492 | 37005 ft | 484 kts | 42° |
| 2026-05-03 20:19 | 18.77279 | -71.61477 | 37006 ft | 483 kts | 42° |
| 2026-05-03 20:20 | 18.82041 | -71.56462 | 37013 ft | 483 kts | 42° |
| 2026-05-03 20:20 | 18.84434 | -71.53944 | 36531 ft | 490 kts | 42° |
| 2026-05-03 20:20 | 18.86844 | -71.51407 | 36006 ft | 486 kts | 43° |
| 2026-05-03 20:20 | 18.89243 | -71.48878 | 35379 ft | 486 kts | 43° |
| 2026-05-03 20:21 | 18.91628 | -71.46364 | 34902 ft | 483 kts | 43° |
| 2026-05-03 20:21 | 18.93971 | -71.43893 | 34430 ft | 480 kts | 44° |
| 2026-05-03 20:21 | 18.96331 | -71.41403 | 33924 ft | 477 kts | 44° |
| 2026-05-03 20:21 | 18.98674 | -71.38930 | 33401 ft | 474 kts | 44° |
| 2026-05-03 20:22 | 19.01000 | -71.36475 | 32919 ft | 470 kts | 44° |
| 2026-05-03 20:22 | 19.03306 | -71.34040 | 32547 ft | 464 kts | 44° |
| 2026-05-03 20:22 | 19.05564 | -71.31656 | 32317 ft | 459 kts | 44° |
| 2026-05-03 20:22 | 19.07846 | -71.29247 | 32092 ft | 469 kts | 44° |
| 2026-05-03 20:23 | 19.10180 | -71.26783 | 31885 ft | 479 kts | 44° |
| 2026-05-03 20:23 | 19.12561 | -71.24267 | 31641 ft | 485 kts | 44° |
| 2026-05-03 20:23 | 19.14954 | -71.21736 | 31409 ft | 487 kts | 44° |
| 2026-05-03 20:23 | 19.17351 | -71.19199 | 30796 ft | 487 kts | 45° |
| 2026-05-03 20:24 | 19.19730 | -71.16680 | 30360 ft | 481 kts | 45° |
| 2026-05-03 20:24 | 19.22077 | -71.14193 | 29919 ft | 474 kts | 45° |
| 2026-05-03 20:24 | 19.24399 | -71.11732 | 29339 ft | 470 kts | 45° |
| 2026-05-03 20:24 | 19.26660 | -71.09334 | 29067 ft | 459 kts | 45° |
| 2026-05-03 20:25 | 19.28920 | -71.06936 | 28730 ft | 466 kts | 45° |
| 2026-05-03 20:25 | 19.31257 | -71.04456 | 28104 ft | 485 kts | 45° |
| 2026-05-03 20:25 | 19.33646 | -71.01921 | 27468 ft | 484 kts | 45° |
| 2026-05-03 20:25 | 19.35840 | -70.99247 | 26814 ft | 479 kts | 58° |
| 2026-05-03 20:26 | 19.37209 | -70.96077 | 26217 ft | 472 kts | 75° |
| 2026-05-03 20:26 | 19.37743 | -70.92676 | 25575 ft | 467 kts | 88° |
| 2026-05-03 20:26 | 19.37518 | -70.89266 | 24928 ft | 462 kts | 103° |
| 2026-05-03 20:26 | 19.36619 | -70.86026 | 24515 ft | 453 kts | 109° |
| 2026-05-03 20:27 | 19.35604 | -70.82913 | 24241 ft | 448 kts | 110° |
| 2026-05-03 20:27 | 19.34543 | -70.79733 | 23620 ft | 469 kts | 110° |
| 2026-05-03 20:27 | 19.33457 | -70.76454 | 22834 ft | 471 kts | 110° |
| 2026-05-03 20:27 | 19.32398 | -70.73195 | 22334 ft | 462 kts | 110° |
| 2026-05-03 20:28 | 19.31389 | -70.70041 | 22225 ft | 444 kts | 109° |
| 2026-05-03 20:28 | 19.30408 | -70.66950 | 21453 ft | 443 kts | 109° |
| 2026-05-03 20:28 | 19.29421 | -70.63836 | 20369 ft | 451 kts | 109° |
| 2026-05-03 20:28 | 19.28418 | -70.60668 | 19449 ft | 455 kts | 109° |
| 2026-05-03 20:29 | 19.27415 | -70.57498 | 18800 ft | 452 kts | 110° |
| 2026-05-03 20:29 | 19.26418 | -70.54355 | 18075 ft | 450 kts | 110° |
| 2026-05-03 20:29 | 19.25436 | -70.51260 | 17303 ft | 447 kts | 110° |
| 2026-05-03 20:29 | 19.24449 | -70.48161 | 16736 ft | 441 kts | 110° |
| 2026-05-03 20:30 | 19.23479 | -70.45112 | 16168 ft | 434 kts | 109° |
| 2026-05-03 20:30 | 19.22520 | -70.42093 | 15574 ft | 430 kts | 109° |
| 2026-05-03 20:30 | 19.21586 | -70.39145 | 15423 ft | 414 kts | 109° |
| 2026-05-03 20:30 | 19.20690 | -70.36313 | 15295 ft | 399 kts | 110° |
| 2026-05-03 20:31 | 19.19824 | -70.33579 | 15177 ft | 385 kts | 109° |
| 2026-05-03 20:31 | 19.18977 | -70.30907 | 14614 ft | 385 kts | 109° |
| 2026-05-03 20:31 | 19.18110 | -70.28180 | 13759 ft | 395 kts | 109° |
| 2026-05-03 20:31 | 19.17240 | -70.25437 | 13447 ft | 386 kts | 109° |
| 2026-05-03 20:32 | 19.16398 | -70.22785 | 13228 ft | 375 kts | 109° |
| 2026-05-03 20:32 | 19.15572 | -70.20186 | 12757 ft | 372 kts | 109° |
| 2026-05-03 20:32 | 19.14759 | -70.17630 | 12306 ft | 369 kts | 109° |
| 2026-05-03 20:32 | 19.13884 | -70.15141 | 12215 ft | 355 kts | 118° |
| 2026-05-03 20:33 | 19.12446 | -70.13094 | 12013 ft | 343 kts | 137° |
| 2026-05-03 20:33 | 19.10665 | -70.11447 | 11724 ft | 338 kts | 141° |
| 2026-05-03 20:33 | 19.08863 | -70.09869 | 11369 ft | 335 kts | 141° |
| 2026-05-03 20:33 | 19.07071 | -70.08310 | 11027 ft | 332 kts | 141° |
| 2026-05-03 20:34 | 19.05302 | -70.06761 | 10687 ft | 329 kts | 141° |
| 2026-05-03 20:34 | 19.03555 | -70.05217 | 10341 ft | 326 kts | 140° |
| 2026-05-03 20:34 | 19.01838 | -70.03694 | 10155 ft | 317 kts | 140° |
| 2026-05-03 20:34 | 19.00177 | -70.02215 | 9989 ft | 306 kts | 140° |
| 2026-05-03 20:35 | 18.98592 | -70.00801 | 9933 ft | 288 kts | 140° |
| 2026-05-03 20:35 | 18.97095 | -69.99464 | 9549 ft | 283 kts | 140° |
| 2026-05-03 20:35 | 18.95589 | -69.98121 | 9141 ft | 282 kts | 140° |
| 2026-05-03 20:35 | 18.94103 | -69.96796 | 8892 ft | 274 kts | 140° |
| 2026-05-03 20:36 | 18.92671 | -69.95519 | 8740 ft | 263 kts | 140° |
| 2026-05-03 20:36 | 18.91289 | -69.94297 | 8585 ft | 256 kts | 142° |
| 2026-05-03 20:36 | 18.89828 | -69.93217 | 8340 ft | 256 kts | 147° |
| 2026-05-03 20:36 | 18.88345 | -69.92225 | 8078 ft | 256 kts | 148° |
| 2026-05-03 20:37 | 18.86838 | -69.91230 | 7827 ft | 255 kts | 148° |
| 2026-05-03 20:37 | 18.85333 | -69.90234 | 7554 ft | 255 kts | 147° |
| 2026-05-03 20:37 | 18.83832 | -69.89235 | 7294 ft | 255 kts | 147° |
| 2026-05-03 20:37 | 18.82325 | -69.88227 | 7050 ft | 256 kts | 147° |
| 2026-05-03 20:38 | 18.80818 | -69.87217 | 6758 ft | 256 kts | 147° |
| 2026-05-03 20:38 | 18.79310 | -69.86203 | 6496 ft | 257 kts | 147° |
| 2026-05-03 20:38 | 18.77805 | -69.85191 | 6200 ft | 257 kts | 147° |
| 2026-05-03 20:38 | 18.76298 | -69.84176 | 5939 ft | 257 kts | 147° |
| 2026-05-03 20:39 | 18.74787 | -69.83159 | 5649 ft | 258 kts | 147° |
| 2026-05-03 20:39 | 18.73295 | -69.82153 | 5369 ft | 257 kts | 146° |
| 2026-05-03 20:39 | 18.71789 | -69.81138 | 5099 ft | 256 kts | 146° |
| 2026-05-03 20:39 | 18.70302 | -69.80134 | 4820 ft | 251 kts | 146° |
| 2026-05-03 20:40 | 18.68840 | -69.79150 | 4546 ft | 247 kts | 146° |
| 2026-05-03 20:40 | 18.67405 | -69.78179 | 4314 ft | 241 kts | 147° |
| 2026-05-03 20:40 | 18.66017 | -69.77244 | 4205 ft | 231 kts | 146° |
| 2026-05-03 20:40 | 18.64684 | -69.76346 | 3991 ft | 226 kts | 146° |
| 2026-05-03 20:41 | 18.63375 | -69.75465 | 3781 ft | 220 kts | 147° |
| 2026-05-03 20:41 | 18.62105 | -69.74610 | 3558 ft | 213 kts | 147° |
| 2026-05-03 20:41 | 18.60879 | -69.73782 | 3297 ft | 205 kts | 147° |
| 2026-05-03 20:41 | 18.59689 | -69.73050 | 3091 ft | 197 kts | 157° |
| 2026-05-03 20:42 | 18.58402 | -69.72604 | 2848 ft | 192 kts | 161° |
| 2026-05-03 20:42 | 18.57180 | -69.72166 | 2654 ft | 178 kts | 160° |
| 2026-05-03 20:42 | 18.56044 | -69.71751 | 2428 ft | 168 kts | 159° |
| 2026-05-03 20:42 | 18.54988 | -69.71360 | 2378 ft | 158 kts | 159° |
| 2026-05-03 20:43 | 18.53944 | -69.70974 | 2246 ft | 157 kts | 160° |
| 2026-05-03 20:43 | 18.52926 | -69.70619 | 1969 ft | 156 kts | 159° |
| 2026-05-03 20:43 | 18.51899 | -69.70225 | 1723 ft | 153 kts | 158° |
| 2026-05-03 20:43 | 18.50904 | -69.69817 | 1414 ft | 154 kts | 158° |
| 2026-05-03 20:44 | 18.49924 | -69.69416 | 1163 ft | 150 kts | 159° |
| 2026-05-03 20:44 | 18.48947 | -69.69047 | 975 ft | 147 kts | 160° |
| 2026-05-03 20:44 | 18.48286 | -69.68819 | 835 ft | 147 kts | 160° |
| 2026-05-03 20:44 | 18.47324 | -69.68452 | 686 ft | 147 kts | 161° |
| 2026-05-03 20:45 | 18.46362 | -69.68114 | 474 ft | 144 kts | 160° |
| 2026-05-03 20:45 | 18.45417 | -69.67780 | 312 ft | 143 kts | 162° |
| 2026-05-03 20:45 | 18.44468 | -69.67434 | 112 ft | 144 kts | 161° |
| 2026-05-03 20:45 | 18.43583 | -69.67111 | 65 ft | 123 kts | 161° |
| 2026-05-03 20:46 | 18.42910 | -69.66866 | 64 ft | 81 kts | 161° |
| 2026-05-03 20:46 | 18.42507 | -69.66725 | 66 ft | 49 kts | 161° |
| 2026-05-03 20:46 | 18.42287 | -69.66645 | 67 ft | 18 kts | 161° |
| 2026-05-03 20:46 | 18.42217 | -69.66709 | 67 ft | 17 kts | 277° |
| 2026-05-03 20:47 | 18.42258 | -69.66820 | 64 ft | 16 kts | 310° |
| 2026-05-03 20:47 | 18.42357 | -69.66869 | 66 ft | 16 kts | 341° |
| 2026-05-03 20:47 | 18.42457 | -69.66906 | 62 ft | 16 kts | 341° |
| 2026-05-03 20:47 | 18.42565 | -69.66945 | 61 ft | 18 kts | 341° |
| 2026-05-03 20:48 | 18.42688 | -69.66990 | 67 ft | 20 kts | 341° |
| 2026-05-03 20:48 | 18.42826 | -69.67039 | 63 ft | 21 kts | 341° |
| 2026-05-03 20:48 | 18.42934 | -69.67089 | 64 ft | 13 kts | 303° |
| 2026-05-03 20:48 | 18.42954 | -69.67189 | 63 ft | 16 kts | 275° |
| 2026-05-03 20:49 | 18.42958 | -69.67310 | 60 ft | 16 kts | 250° |
| 2026-05-03 20:49 | 18.42869 | -69.67339 | 67 ft | 9 kts | 175° |
| 2026-05-03 20:49 | 18.42824 | -69.67374 | 67 ft | 8 kts | 235° |
| 2026-05-03 20:49 | 18.42797 | -69.67428 | 59 ft | 8 kts | 248° |
| 2026-05-03 20:50 | 18.42785 | -69.67480 | 61 ft | 7 kts | 288° |
| 2026-05-03 20:50 | 18.42826 | -69.67485 | 67 ft | 5 kts | 9° |
| 2026-05-03 20:50 | 18.42840 | -69.67483 | 63 ft | 0 kts | 9° |